createdAt,value
2024-04-01T00:00:10.970Z,971.49
2024-04-01T00:01:10.990Z,971.46
2024-04-01T00:02:10.950Z,971.45
2024-04-01T00:03:10.950Z,971.41
2024-04-01T00:04:10.940Z,971.38
2024-04-01T00:05:10.916Z,971.37
2024-04-01T00:06:10.944Z,971.38
2024-04-01T00:07:10.958Z,971.39
2024-04-01T00:08:10.866Z,971.36
2024-04-01T00:09:10.861Z,971.32
2024-04-01T00:10:10.876Z,971.32
2024-04-01T00:11:10.843Z,971.38
2024-04-01T00:12:10.853Z,971.31
2024-04-01T00:13:10.840Z,971.33
2024-04-01T00:14:10.819Z,971.37
2024-04-01T00:15:10.789Z,971.32
2024-04-01T00:16:10.784Z,971.25
2024-04-01T00:17:10.761Z,971.27
2024-04-01T00:18:11.700Z,971.28
2024-04-01T00:19:10.754Z,971.31
2024-04-01T00:20:10.796Z,971.28
2024-04-01T00:21:11.413Z,971.25
2024-04-01T00:22:10.684Z,971.26
2024-04-01T00:23:10.783Z,971.24
2024-04-01T00:24:10.700Z,971.22
2024-04-01T00:25:10.701Z,971.21
2024-04-01T00:26:10.660Z,971.18
2024-04-01T00:27:11.339Z,971.16
2024-04-01T00:28:10.708Z,971.18
2024-04-01T00:29:10.605Z,971.12
2024-04-01T00:30:10.588Z,971.13
2024-04-01T00:31:10.626Z,971.01
2024-04-01T00:32:13.351Z,971.00
2024-04-01T00:33:10.580Z,970.99
2024-04-01T00:34:10.557Z,971.00
2024-04-01T00:35:10.533Z,971.04
2024-04-01T00:36:10.503Z,971.11
2024-04-01T00:37:10.539Z,971.14
2024-04-01T00:38:10.494Z,971.17
2024-04-01T00:39:10.484Z,971.13
2024-04-01T00:40:10.478Z,971.14
2024-04-01T00:41:10.518Z,971.19
2024-04-01T00:42:10.429Z,971.19
2024-04-01T00:43:10.454Z,971.20
2024-04-01T00:44:10.467Z,971.19
2024-04-01T00:45:11.339Z,971.16
2024-04-01T00:46:10.376Z,971.18
2024-04-01T00:47:10.373Z,971.20
2024-04-01T00:48:10.351Z,971.21
2024-04-01T00:49:11.197Z,971.25
2024-04-01T00:50:10.321Z,971.21
2024-04-01T00:51:10.410Z,971.23
2024-04-01T00:52:10.306Z,971.23
2024-04-01T00:53:10.298Z,971.21
2024-04-01T00:54:10.274Z,971.22
2024-04-01T00:55:10.301Z,971.19
2024-04-01T00:56:10.282Z,971.18
2024-04-01T00:57:10.240Z,971.14
2024-04-01T00:58:10.223Z,971.15
2024-04-01T00:59:10.211Z,971.16
2024-04-01T01:00:10.189Z,971.20
2024-04-01T01:01:10.228Z,971.14
2024-04-01T01:02:10.165Z,971.13
2024-04-01T01:03:10.165Z,971.08
2024-04-01T01:04:10.180Z,971.06
2024-04-01T01:05:10.142Z,971.04
2024-04-01T01:06:10.130Z,971.04
2024-04-01T01:07:10.130Z,971.01
2024-04-01T01:08:10.089Z,971.03
2024-04-01T01:09:10.096Z,970.99
2024-04-01T01:10:10.773Z,970.93
2024-04-01T01:11:10.069Z,970.90
2024-04-01T01:12:10.033Z,970.86
2024-04-01T01:13:10.104Z,970.76
2024-04-01T01:14:10.083Z,970.73
2024-04-01T01:15:10.085Z,970.76
2024-04-01T01:16:31.039Z,970.72
2024-04-01T01:17:09.983Z,970.68
2024-04-01T01:18:09.970Z,970.72
2024-04-01T01:19:09.980Z,970.70
2024-04-01T01:20:09.929Z,970.68
2024-04-01T01:21:09.925Z,970.67
2024-04-01T01:22:09.915Z,970.68
2024-04-01T01:23:09.897Z,970.70
2024-04-01T01:24:09.881Z,970.73
2024-04-01T01:25:09.899Z,970.67
2024-04-01T01:26:09.880Z,970.66
2024-04-01T01:27:09.856Z,970.63
2024-04-01T01:28:09.836Z,970.65
2024-04-01T01:29:09.871Z,970.69
2024-04-01T01:30:09.811Z,970.69
2024-04-01T01:31:09.818Z,970.69
2024-04-01T01:32:09.781Z,970.66
2024-04-01T01:33:09.771Z,970.76
2024-04-01T01:34:09.750Z,970.77
2024-04-01T01:35:09.740Z,970.75
2024-04-01T01:36:09.758Z,970.80
2024-04-01T01:37:09.731Z,970.73
2024-04-01T01:38:09.705Z,970.74
2024-04-01T01:39:09.700Z,970.75
2024-04-01T01:40:10.389Z,970.71
2024-04-01T01:41:09.656Z,970.73
2024-04-01T01:42:09.648Z,970.71
2024-04-01T01:43:10.624Z,970.74
2024-04-01T01:44:10.382Z,970.77
2024-04-01T01:45:09.615Z,970.74
2024-04-01T01:46:09.687Z,970.78
2024-04-01T01:47:09.603Z,970.75
2024-04-01T01:48:09.579Z,970.75
2024-04-01T01:49:09.752Z,970.73
2024-04-01T01:50:09.545Z,970.74
2024-04-01T01:51:09.536Z,970.75
2024-04-01T01:52:09.524Z,970.74
2024-04-01T01:53:10.498Z,970.71
2024-04-01T01:54:09.498Z,970.72
2024-04-01T01:55:09.543Z,970.75
2024-04-01T01:56:09.476Z,970.79
2024-04-01T01:57:09.458Z,970.79
2024-04-01T01:58:09.444Z,970.81
2024-04-01T01:59:10.132Z,970.85
2024-04-01T02:00:09.433Z,970.86
2024-04-01T02:01:09.431Z,970.86
2024-04-01T02:02:09.475Z,970.84
2024-04-01T02:03:09.457Z,970.80
2024-04-01T02:04:09.368Z,970.84
2024-04-01T02:05:09.348Z,970.81
2024-04-01T02:06:09.346Z,970.87
2024-04-01T02:07:09.476Z,970.82
2024-04-01T02:08:09.315Z,970.82
2024-04-01T02:09:09.298Z,970.84
2024-04-01T02:10:09.333Z,970.88
2024-04-01T02:11:09.307Z,970.87
2024-04-01T02:12:09.372Z,970.86
2024-04-01T02:13:09.299Z,970.85
2024-04-01T02:14:09.242Z,970.82
2024-04-01T02:15:09.229Z,970.82
2024-04-01T02:16:09.216Z,970.77
2024-04-01T02:17:09.203Z,970.82
2024-04-01T02:18:09.186Z,970.79
2024-04-01T02:19:09.205Z,970.78
2024-04-01T02:20:09.181Z,970.76
2024-04-01T02:21:09.146Z,970.76
2024-04-01T02:22:09.189Z,970.76
2024-04-01T02:23:09.130Z,970.71
2024-04-01T02:24:09.111Z,970.76
2024-04-01T02:25:09.143Z,970.74
2024-04-01T02:26:09.084Z,970.76
2024-04-01T02:27:09.076Z,970.78
2024-04-01T02:28:09.762Z,970.76
2024-04-01T02:29:09.056Z,970.78
2024-04-01T02:30:09.023Z,970.67
2024-04-01T02:31:09.046Z,970.66
2024-04-01T02:32:09.006Z,970.72
2024-04-01T02:33:09.062Z,970.78
2024-04-01T02:34:08.978Z,970.78
2024-04-01T02:35:09.045Z,970.73
2024-04-01T02:36:08.966Z,970.75
2024-04-01T02:37:08.989Z,970.66
2024-04-01T02:38:08.926Z,970.62
2024-04-01T02:39:08.937Z,970.50
2024-04-01T02:40:08.922Z,970.47
2024-04-01T02:41:08.891Z,970.41
2024-04-01T02:42:08.870Z,970.37
2024-04-01T02:43:08.900Z,970.37
2024-04-01T02:44:08.930Z,970.34
2024-04-01T02:45:08.856Z,970.36
2024-04-01T02:46:08.962Z,970.34
2024-04-01T02:47:08.844Z,970.34
2024-04-01T02:48:08.789Z,970.30
2024-04-01T02:49:08.817Z,970.29
2024-04-01T02:50:08.769Z,970.28
2024-04-01T02:51:08.754Z,970.27
2024-04-01T02:52:08.742Z,970.25
2024-04-01T02:53:08.732Z,970.17
2024-04-01T02:54:08.728Z,970.19
2024-04-01T02:55:08.775Z,970.16
2024-04-01T02:56:08.693Z,970.18
2024-04-01T02:57:08.695Z,970.18
2024-04-01T02:58:08.680Z,970.19
2024-04-01T02:59:08.660Z,970.23
2024-04-01T03:00:08.700Z,970.22
2024-04-01T03:01:08.891Z,970.21
2024-04-01T03:02:08.636Z,970.17
2024-04-01T03:03:08.617Z,970.21
2024-04-01T03:04:08.592Z,970.16
2024-04-01T03:05:08.666Z,970.16
2024-04-01T03:06:08.568Z,970.13
2024-04-01T03:07:08.579Z,970.10
2024-04-01T03:08:09.268Z,970.11
2024-04-01T03:09:08.570Z,970.03
2024-04-01T03:10:08.523Z,970.02
2024-04-01T03:11:08.510Z,969.89
2024-04-01T03:12:08.560Z,969.87
2024-04-01T03:13:08.509Z,969.89
2024-04-01T03:14:08.484Z,969.85
2024-04-01T03:15:08.473Z,969.86
2024-04-01T03:16:08.450Z,969.84
2024-04-01T03:17:08.423Z,969.82
2024-04-01T03:18:08.420Z,969.78
2024-04-01T03:19:08.444Z,969.75
2024-04-01T03:20:08.401Z,969.73
2024-04-01T03:21:08.359Z,969.70
2024-04-01T03:22:08.357Z,969.70
2024-04-01T03:23:08.338Z,969.64
2024-04-01T03:24:08.374Z,969.63
2024-04-01T03:25:08.384Z,969.64
2024-04-01T03:26:08.309Z,969.62
2024-04-01T03:27:08.364Z,969.67
2024-04-01T03:28:08.277Z,969.71
2024-04-01T03:29:08.270Z,969.75
2024-04-01T03:30:08.261Z,969.72
2024-04-01T03:31:08.290Z,969.77
2024-04-01T03:32:08.222Z,969.83
2024-04-01T03:33:08.415Z,969.84
2024-04-01T03:34:08.203Z,969.87
2024-04-01T03:35:08.205Z,969.86
2024-04-01T03:36:09.119Z,969.88
2024-04-01T03:37:08.177Z,969.87
2024-04-01T03:38:08.158Z,969.86
2024-04-01T03:39:08.155Z,969.85
2024-04-01T03:40:08.156Z,969.83
2024-04-01T03:41:08.124Z,969.84
2024-04-01T03:42:08.106Z,969.83
2024-04-01T03:43:08.117Z,969.77
2024-04-01T03:44:08.180Z,969.79
2024-04-01T03:45:08.138Z,969.71
2024-04-01T03:46:08.039Z,969.69
2024-04-01T03:47:08.030Z,969.67
2024-04-01T03:48:08.036Z,969.64
2024-04-01T03:49:08.049Z,969.59
2024-04-01T03:50:08.031Z,969.54
2024-04-01T03:51:07.989Z,969.55
2024-04-01T03:52:07.975Z,969.52
2024-04-01T03:53:07.968Z,969.50
2024-04-01T03:54:07.944Z,969.45
2024-04-01T03:55:07.989Z,969.42
2024-04-01T03:56:08.665Z,969.38
2024-04-01T03:57:07.901Z,969.32
2024-04-01T03:58:07.892Z,969.17
2024-04-01T03:59:07.886Z,969.11
2024-04-01T04:00:07.879Z,969.07
2024-04-01T04:01:07.889Z,969.02
2024-04-01T04:02:07.857Z,968.98
2024-04-01T04:03:07.841Z,968.94
2024-04-01T04:04:07.933Z,968.94
2024-04-01T04:05:07.814Z,968.93
2024-04-01T04:06:07.858Z,968.97
2024-04-01T04:07:07.872Z,968.91
2024-04-01T04:08:07.845Z,968.91
2024-04-01T04:09:07.785Z,968.98
2024-04-01T04:10:07.725Z,968.97
2024-04-01T04:11:07.727Z,968.92
2024-04-01T04:12:07.699Z,969.00
2024-04-01T04:13:07.757Z,969.00
2024-04-01T04:14:07.679Z,968.98
2024-04-01T04:15:07.678Z,969.08
2024-04-01T04:16:07.669Z,969.12
2024-04-01T04:17:07.660Z,969.19
2024-04-01T04:18:07.730Z,969.19
2024-04-01T04:19:07.653Z,969.24
2024-04-01T04:20:07.694Z,969.31
2024-04-01T04:21:07.611Z,969.31
2024-04-01T04:22:07.600Z,969.27
2024-04-01T04:23:07.574Z,969.35
2024-04-01T04:24:07.609Z,969.35
2024-04-01T04:25:07.583Z,969.34
2024-04-01T04:26:07.552Z,969.45
2024-04-01T04:27:07.525Z,969.49
2024-04-01T04:28:07.508Z,969.57
2024-04-01T04:29:07.600Z,969.56
2024-04-01T04:30:07.477Z,969.62
2024-04-01T04:31:07.538Z,969.67
2024-04-01T04:32:07.456Z,969.63
2024-04-01T04:33:07.516Z,969.65
2024-04-01T04:34:08.128Z,969.64
2024-04-01T04:35:07.711Z,969.61
2024-04-01T04:36:07.392Z,969.58
2024-04-01T04:37:07.424Z,969.51
2024-04-01T04:38:07.340Z,969.47
2024-04-01T04:39:07.308Z,969.49
2024-04-01T04:40:07.339Z,969.46
2024-04-01T04:41:07.341Z,969.46
2024-04-01T04:42:07.425Z,969.39
2024-04-01T04:43:07.301Z,969.35
2024-04-01T04:44:07.259Z,969.32
2024-04-01T04:45:07.247Z,969.26
2024-04-01T04:46:11.057Z,969.28
2024-04-01T04:47:07.293Z,969.24
2024-04-01T04:48:07.269Z,969.15
2024-04-01T04:49:07.199Z,969.10
2024-04-01T04:50:07.168Z,969.09
2024-04-01T04:51:07.149Z,969.08
2024-04-01T04:52:08.101Z,969.15
2024-04-01T04:53:07.154Z,969.15
2024-04-01T04:54:07.107Z,969.13
2024-04-01T04:55:07.121Z,969.12
2024-04-01T04:56:07.169Z,969.11
2024-04-01T04:57:07.066Z,969.04
2024-04-01T04:58:07.059Z,969.05
2024-04-01T04:59:07.070Z,969.04
2024-04-01T05:00:07.107Z,969.04
2024-04-01T05:01:07.035Z,969.08
2024-04-01T05:02:07.023Z,969.11
2024-04-01T05:03:06.995Z,969.15
2024-04-01T05:04:07.019Z,969.16
2024-04-01T05:05:06.982Z,969.18
2024-04-01T05:06:07.733Z,969.19
2024-04-01T05:07:07.884Z,969.25
2024-04-01T05:08:06.942Z,969.24
2024-04-01T05:09:06.992Z,969.23
2024-04-01T05:10:09.083Z,969.18
2024-04-01T05:11:06.894Z,969.16
2024-04-01T05:12:06.878Z,969.17
2024-04-01T05:13:06.946Z,969.20
2024-04-01T05:14:06.853Z,969.26
2024-04-01T05:15:06.837Z,969.31
2024-04-01T05:16:06.829Z,969.37
2024-04-01T05:17:06.834Z,969.42
2024-04-01T05:18:06.814Z,969.41
2024-04-01T05:19:06.815Z,969.39
2024-04-01T05:20:06.778Z,969.42
2024-04-01T05:21:06.785Z,969.37
2024-04-01T05:22:06.756Z,969.35
2024-04-01T05:23:06.741Z,969.40
2024-04-01T05:24:06.760Z,969.39
2024-04-01T05:25:06.736Z,969.43
2024-04-01T05:26:06.741Z,969.47
2024-04-01T05:27:06.707Z,969.44
2024-04-01T05:28:06.672Z,969.49
2024-04-01T05:29:06.662Z,969.48
2024-04-01T05:30:06.675Z,969.51
2024-04-01T05:31:06.917Z,969.54
2024-04-01T05:32:06.621Z,969.52
2024-04-01T05:33:06.618Z,969.55
2024-04-01T05:34:06.596Z,969.58
2024-04-01T05:35:06.655Z,969.54
2024-04-01T05:36:06.585Z,969.54
2024-04-01T05:37:06.616Z,969.53
2024-04-01T05:38:06.539Z,969.47
2024-04-01T05:39:06.546Z,969.36
2024-04-01T05:40:06.534Z,969.37
2024-04-01T05:41:06.516Z,969.28
2024-04-01T05:42:06.511Z,969.21
2024-04-01T05:43:06.504Z,969.21
2024-04-01T05:44:06.465Z,969.28
2024-04-01T05:45:06.455Z,969.29
2024-04-01T05:46:06.518Z,969.41
2024-04-01T05:47:06.439Z,969.34
2024-04-01T05:48:06.472Z,969.42
2024-04-01T05:49:06.490Z,969.45
2024-04-01T05:50:06.374Z,969.51
2024-04-01T05:51:07.101Z,969.56
2024-04-01T05:52:06.352Z,969.59
2024-04-01T05:53:06.399Z,969.62
2024-04-01T05:54:06.327Z,969.66
2024-04-01T05:55:07.303Z,969.71
2024-04-01T05:56:06.380Z,969.72
2024-04-01T05:57:06.288Z,969.74
2024-04-01T05:58:06.271Z,969.74
2024-04-01T05:59:06.264Z,969.80
2024-04-01T06:00:06.963Z,969.79
2024-04-01T06:01:06.278Z,969.78
2024-04-01T06:02:06.238Z,969.80
2024-04-01T06:03:06.221Z,969.85
2024-04-01T06:04:06.220Z,969.87
2024-04-01T06:05:06.223Z,969.90
2024-04-01T06:06:06.258Z,969.92
2024-04-01T06:07:06.194Z,969.92
2024-04-01T06:08:06.184Z,969.99
2024-04-01T06:09:06.159Z,970.03
2024-04-01T06:10:06.206Z,970.05
2024-04-01T06:11:06.112Z,970.11
2024-04-01T06:12:06.112Z,970.19
2024-04-01T06:13:06.146Z,970.23
2024-04-01T06:14:06.076Z,970.27
2024-04-01T06:15:06.054Z,970.29
2024-04-01T06:16:06.074Z,970.30
2024-04-01T06:17:06.034Z,970.34
2024-04-01T06:18:06.734Z,970.34
2024-04-01T06:19:06.040Z,970.32
2024-04-01T06:20:06.004Z,970.23
2024-04-01T06:21:06.000Z,970.16
2024-04-01T06:22:05.984Z,970.02
2024-04-01T06:23:06.448Z,969.90
2024-04-01T06:24:05.932Z,969.74
2024-04-01T06:25:05.960Z,969.59
2024-04-01T06:26:05.914Z,969.48
2024-04-01T06:27:05.965Z,969.35
2024-04-01T06:28:05.911Z,969.27
2024-04-01T06:29:06.649Z,969.13
2024-04-01T06:30:05.883Z,969.11
2024-04-01T06:31:05.892Z,969.07
2024-04-01T06:32:05.842Z,969.03
2024-04-01T06:33:05.830Z,969.05
2024-04-01T06:34:05.826Z,969.11
2024-04-01T06:35:05.799Z,969.10
2024-04-01T06:36:05.787Z,969.15
2024-04-01T06:37:05.797Z,969.13
2024-04-01T06:38:06.566Z,969.11
2024-04-01T06:39:05.755Z,968.99
2024-04-01T06:40:05.752Z,968.94
2024-04-01T06:41:05.801Z,968.87
2024-04-01T06:42:05.727Z,968.87
2024-04-01T06:43:05.715Z,968.89
2024-04-01T06:44:05.683Z,968.85
2024-04-01T06:45:06.440Z,968.90
2024-04-01T06:46:05.684Z,968.88
2024-04-01T06:47:05.639Z,968.86
2024-04-01T06:48:05.630Z,968.83
2024-04-01T06:49:05.649Z,968.84
2024-04-01T06:50:05.608Z,968.77
2024-04-01T06:51:05.674Z,968.84
2024-04-01T06:52:05.583Z,968.89
2024-04-01T06:53:05.574Z,968.98
2024-04-01T06:54:05.572Z,969.02
2024-04-01T06:55:05.680Z,969.07
2024-04-01T06:56:05.597Z,969.12
2024-04-01T06:57:05.500Z,969.15
2024-04-01T06:58:05.635Z,969.19
2024-04-01T06:59:05.489Z,969.18
2024-04-01T07:00:06.218Z,969.19
2024-04-01T07:01:05.490Z,969.22
2024-04-01T07:02:05.444Z,969.31
2024-04-01T07:03:05.514Z,969.39
2024-04-01T07:04:05.422Z,969.50
2024-04-01T07:05:05.414Z,969.55
2024-04-01T07:06:07.046Z,969.56
2024-04-01T07:07:05.421Z,969.60
2024-04-01T07:08:05.365Z,969.54
2024-04-01T07:09:05.365Z,969.50
2024-04-01T07:10:05.360Z,969.57
2024-04-01T07:11:05.322Z,969.59
2024-04-01T07:12:05.318Z,969.57
2024-04-01T07:13:05.346Z,969.66
2024-04-01T07:14:05.293Z,969.70
2024-04-01T07:15:05.274Z,969.68
2024-04-01T07:16:05.283Z,969.69
2024-04-01T07:17:05.257Z,969.70
2024-04-01T07:18:05.264Z,969.62
2024-04-01T07:19:05.239Z,969.64
2024-04-01T07:20:05.949Z,969.68
2024-04-01T07:21:05.214Z,969.66
2024-04-01T07:22:05.190Z,969.65
2024-04-01T07:23:05.180Z,969.64
2024-04-01T07:24:05.168Z,969.68
2024-04-01T07:25:05.173Z,969.65
2024-04-01T07:26:05.134Z,969.71
2024-04-01T07:27:05.138Z,969.68
2024-04-01T07:28:05.120Z,969.67
2024-04-01T07:29:05.121Z,969.69
2024-04-01T07:30:05.106Z,969.70
2024-04-01T07:31:05.082Z,969.72
2024-04-01T07:32:05.081Z,969.74
2024-04-01T07:33:05.058Z,969.73
2024-04-01T07:34:05.035Z,969.64
2024-04-01T07:35:05.018Z,969.65
2024-04-01T07:36:05.008Z,969.58
2024-04-01T07:37:05.015Z,969.53
2024-04-01T07:38:05.003Z,969.50
2024-04-01T07:39:04.965Z,969.53
2024-04-01T07:40:05.876Z,969.51
2024-04-01T07:41:05.043Z,969.53
2024-04-01T07:42:05.651Z,969.56
2024-04-01T07:43:04.928Z,969.61
2024-04-01T07:44:05.001Z,969.63
2024-04-01T07:45:04.876Z,969.64
2024-04-01T07:46:04.877Z,969.61
2024-04-01T07:47:05.598Z,969.56
2024-04-01T07:48:04.922Z,969.54
2024-04-01T07:49:04.863Z,969.45
2024-04-01T07:50:04.822Z,969.42
2024-04-01T07:51:04.814Z,969.49
2024-04-01T07:52:04.809Z,969.53
2024-04-01T07:53:04.787Z,969.54
2024-04-01T07:54:04.788Z,969.54
2024-04-01T07:55:04.776Z,969.56
2024-04-01T07:56:04.741Z,969.62
2024-04-01T07:57:04.826Z,969.66
2024-04-01T07:58:04.709Z,969.62
2024-04-01T07:59:06.578Z,969.60
2024-04-01T08:00:04.767Z,969.60
2024-04-01T08:01:04.696Z,969.57
2024-04-01T08:02:04.721Z,969.63
2024-04-01T08:03:05.506Z,969.65
2024-04-01T08:04:05.760Z,969.64
2024-04-01T08:05:04.634Z,969.64
2024-04-01T08:06:04.616Z,969.59
2024-04-01T08:07:04.660Z,969.54
2024-04-01T08:08:04.607Z,969.48
2024-04-01T08:09:04.584Z,969.43
2024-04-01T08:10:04.587Z,969.46
2024-04-01T08:11:04.638Z,969.44
2024-04-01T08:12:04.614Z,969.50
2024-04-01T08:13:04.551Z,969.47
2024-04-01T08:14:04.499Z,969.51
2024-04-01T08:15:04.506Z,969.52
2024-04-01T08:16:04.549Z,969.47
2024-04-01T08:17:04.458Z,969.47
2024-04-01T08:18:04.466Z,969.47
2024-04-01T08:19:04.496Z,969.54
2024-04-01T08:20:04.435Z,969.47
2024-04-01T08:21:05.365Z,969.47
2024-04-01T08:22:04.401Z,969.42
2024-04-01T08:23:04.397Z,969.49
2024-04-01T08:24:04.478Z,969.48
2024-04-01T08:25:04.430Z,969.40
2024-04-01T08:26:04.370Z,969.50
2024-04-01T08:27:04.339Z,969.47
2024-04-01T08:28:04.323Z,969.47
2024-04-01T08:29:04.319Z,969.51
2024-04-01T08:30:04.390Z,969.49
2024-04-01T08:31:04.335Z,969.48
2024-04-01T08:32:04.289Z,969.42
2024-04-01T08:33:04.277Z,969.41
2024-04-01T08:34:04.310Z,969.43
2024-04-01T08:35:04.240Z,969.46
2024-04-01T08:36:04.237Z,969.45
2024-04-01T08:37:04.248Z,969.50
2024-04-01T08:38:04.213Z,969.52
2024-04-01T08:39:04.942Z,969.51
2024-04-01T08:40:05.112Z,969.51
2024-04-01T08:41:04.261Z,969.49
2024-04-01T08:42:04.150Z,969.55
2024-04-01T08:43:04.173Z,969.56
2024-04-01T08:44:04.129Z,969.49
2024-04-01T08:45:04.102Z,969.52
2024-04-01T08:46:05.056Z,969.50
2024-04-01T08:47:04.071Z,969.47
2024-04-01T08:48:04.075Z,969.46
2024-04-01T08:49:04.095Z,969.44
2024-04-01T08:50:04.032Z,969.43
2024-04-01T08:51:04.031Z,969.41
2024-04-01T08:52:05.498Z,969.39
2024-04-01T08:53:04.000Z,969.41
2024-04-01T08:54:03.991Z,969.44
2024-04-01T08:55:04.059Z,969.46
2024-04-01T08:56:03.966Z,969.41
2024-04-01T08:57:04.017Z,969.46
2024-04-01T08:58:04.772Z,969.44
2024-04-01T08:59:04.462Z,969.45
2024-04-01T09:00:04.640Z,969.47
2024-04-01T09:01:03.926Z,969.47
2024-04-01T09:02:03.899Z,969.45
2024-04-01T09:03:03.980Z,969.45
2024-04-01T09:04:03.881Z,969.47
2024-04-01T09:05:03.851Z,969.47
2024-04-01T09:06:03.823Z,969.45
2024-04-01T09:07:03.845Z,969.45
2024-04-01T09:08:03.813Z,969.46
2024-04-01T09:09:03.797Z,969.49
2024-04-01T09:10:03.791Z,969.46
2024-04-01T09:11:03.775Z,969.50
2024-04-01T09:12:03.774Z,969.55
2024-04-01T09:13:03.900Z,969.58
2024-04-01T09:14:04.467Z,969.57
2024-04-01T09:15:04.647Z,969.63
2024-04-01T09:16:04.739Z,969.65
2024-04-01T09:17:03.692Z,969.63
2024-04-01T09:18:03.757Z,969.59
2024-04-01T09:19:03.689Z,969.65
2024-04-01T09:20:03.679Z,969.60
2024-04-01T09:21:03.627Z,969.62
2024-04-01T09:22:03.631Z,969.57
2024-04-01T09:23:03.598Z,969.62
2024-04-01T09:24:03.595Z,969.57
2024-04-01T09:25:03.597Z,969.65
2024-04-01T09:26:03.575Z,969.66
2024-04-01T09:27:03.546Z,969.63
2024-04-01T09:28:03.634Z,969.66
2024-04-01T09:29:03.602Z,969.65
2024-04-01T09:30:03.524Z,969.61
2024-04-01T09:31:03.553Z,969.59
2024-04-01T09:32:04.291Z,969.54
2024-04-01T09:33:03.468Z,969.54
2024-04-01T09:34:03.464Z,969.45
2024-04-01T09:35:03.462Z,969.41
2024-04-01T09:36:03.446Z,969.40
2024-04-01T09:37:03.465Z,969.43
2024-04-01T09:38:03.398Z,969.49
2024-04-01T09:39:03.390Z,969.54
2024-04-01T09:40:04.081Z,969.58
2024-04-01T09:41:03.374Z,969.61
2024-04-01T09:42:03.378Z,969.59
2024-04-01T09:43:03.572Z,969.55
2024-04-01T09:44:03.373Z,969.55
2024-04-01T09:45:03.318Z,969.53
2024-04-01T09:46:05.441Z,969.58
2024-04-01T09:47:04.001Z,969.56
2024-04-01T09:48:03.290Z,969.59
2024-04-01T09:49:03.366Z,969.64
2024-04-01T09:50:03.263Z,969.62
2024-04-01T09:51:03.242Z,969.61
2024-04-01T09:52:04.396Z,969.62
2024-04-01T09:53:03.253Z,969.56
2024-04-01T09:54:03.219Z,969.58
2024-04-01T09:55:03.544Z,969.62
2024-04-01T09:56:03.187Z,969.66
2024-04-01T09:57:03.200Z,969.68
2024-04-01T09:58:04.926Z,969.66
2024-04-01T09:59:03.175Z,969.66
2024-04-01T10:00:03.165Z,969.69
2024-04-01T10:01:03.183Z,969.68
2024-04-01T10:02:03.112Z,969.69
2024-04-01T10:03:03.108Z,969.68
2024-04-01T10:04:03.097Z,969.70
2024-04-01T10:05:03.064Z,969.66
2024-04-01T10:06:03.842Z,969.66
2024-04-01T10:07:03.057Z,969.69
2024-04-01T10:08:03.025Z,969.67
2024-04-01T10:09:07.026Z,969.64
2024-04-01T10:10:05.191Z,969.67
2024-04-01T10:11:03.053Z,969.67
2024-04-01T10:12:02.975Z,969.71
2024-04-01T10:13:03.068Z,969.76
2024-04-01T10:14:02.946Z,969.71
2024-04-01T10:15:02.922Z,969.72
2024-04-01T10:16:03.014Z,969.75
2024-04-01T10:17:02.921Z,969.77
2024-04-01T10:18:03.150Z,969.82
2024-04-01T10:19:02.936Z,969.80
2024-04-01T10:20:02.857Z,969.81
2024-04-01T10:21:02.892Z,969.76
2024-04-01T10:22:02.847Z,969.77
2024-04-01T10:23:03.524Z,969.82
2024-04-01T10:24:02.834Z,969.83
2024-04-01T10:25:02.898Z,969.80
2024-04-01T10:26:05.063Z,969.80
2024-04-01T10:27:03.475Z,969.75
2024-04-01T10:28:02.774Z,969.73
2024-04-01T10:29:02.754Z,969.78
2024-04-01T10:30:03.124Z,969.78
2024-04-01T10:31:02.780Z,969.74
2024-04-01T10:32:05.367Z,969.69
2024-04-01T10:33:02.688Z,969.72
2024-04-01T10:34:02.681Z,969.71
2024-04-01T10:35:09.120Z,969.70
2024-04-01T10:36:13.762Z,969.66
2024-04-01T10:37:03.645Z,969.73
2024-04-01T10:38:02.721Z,969.73
2024-04-01T10:39:02.682Z,969.72
2024-04-01T10:40:03.568Z,969.77
2024-04-01T10:41:02.615Z,969.80
2024-04-01T10:42:02.600Z,969.80
2024-04-01T10:43:02.566Z,969.81
2024-04-01T10:44:03.321Z,969.77
2024-04-01T10:45:02.541Z,969.79
2024-04-01T10:46:02.527Z,969.77
2024-04-01T10:47:02.520Z,969.75
2024-04-01T10:48:04.245Z,969.74
2024-04-01T10:49:02.527Z,969.67
2024-04-01T10:50:02.509Z,969.65
2024-04-01T10:51:02.464Z,969.64
2024-04-01T10:52:02.438Z,969.64
2024-04-01T10:53:02.441Z,969.65
2024-04-01T10:54:02.444Z,969.66
2024-04-01T10:55:02.413Z,969.65
2024-04-01T10:56:02.393Z,969.66
2024-04-01T10:57:02.453Z,969.66
2024-04-01T10:58:02.356Z,969.68
2024-04-01T10:59:04.718Z,969.66
2024-04-01T11:00:02.467Z,969.74
2024-04-01T11:01:02.328Z,969.68
2024-04-01T11:02:02.308Z,969.72
2024-04-01T11:03:02.310Z,969.71
2024-04-01T11:04:02.282Z,969.75
2024-04-01T11:05:02.268Z,969.71
2024-04-01T11:06:02.376Z,969.74
2024-04-01T11:07:02.248Z,969.75
2024-04-01T11:08:02.226Z,969.81
2024-04-01T11:09:02.246Z,969.83
2024-04-01T11:10:02.217Z,969.88
2024-04-01T11:11:02.199Z,969.95
2024-04-01T11:12:02.239Z,969.93
2024-04-01T11:13:02.176Z,969.90
2024-04-01T11:14:02.160Z,969.92
2024-04-01T11:15:02.148Z,969.89
2024-04-01T11:16:02.129Z,969.89
2024-04-01T11:17:02.124Z,969.90
2024-04-01T11:18:02.158Z,969.96
2024-04-01T11:19:02.849Z,969.96
2024-04-01T11:20:02.110Z,970.00
2024-04-01T11:21:02.068Z,970.00
2024-04-01T11:22:02.056Z,969.98
2024-04-01T11:23:02.092Z,969.97
2024-04-01T11:24:02.058Z,969.96
2024-04-01T11:25:02.937Z,970.02
2024-04-01T11:26:02.017Z,970.01
2024-04-01T11:27:02.021Z,970.03
2024-04-01T11:28:04.268Z,970.03
2024-04-01T11:29:01.976Z,970.04
2024-04-01T11:30:02.054Z,970.05
2024-04-01T11:31:01.937Z,970.04
2024-04-01T11:32:01.948Z,970.03
2024-04-01T11:33:01.979Z,970.11
2024-04-01T11:34:01.891Z,970.10
2024-04-01T11:35:01.882Z,970.17
2024-04-01T11:36:02.011Z,970.16
2024-04-01T11:37:01.863Z,970.20
2024-04-01T11:38:01.864Z,970.16
2024-04-01T11:39:02.865Z,970.20
2024-04-01T11:40:01.811Z,970.29
2024-04-01T11:41:01.804Z,970.26
2024-04-01T11:42:01.841Z,970.30
2024-04-01T11:43:01.781Z,970.24
2024-04-01T11:44:01.761Z,970.26
2024-04-01T11:45:01.746Z,970.32
2024-04-01T11:46:01.726Z,970.33
2024-04-01T11:47:01.724Z,970.33
2024-04-01T11:48:01.747Z,970.31
2024-04-01T11:49:01.710Z,970.33
2024-04-01T11:50:01.822Z,970.34
2024-04-01T11:51:01.757Z,970.33
2024-04-01T11:52:01.668Z,970.30
2024-04-01T11:53:02.690Z,970.32
2024-04-01T11:54:02.905Z,970.34
2024-04-01T11:55:01.628Z,970.31
2024-04-01T11:56:01.619Z,970.26
2024-04-01T11:57:01.679Z,970.32
2024-04-01T11:58:01.584Z,970.29
2024-04-01T11:59:01.573Z,970.30
2024-04-01T12:00:01.586Z,970.30
2024-04-01T12:01:02.349Z,970.30
2024-04-01T12:02:01.530Z,970.33
2024-04-01T12:03:01.552Z,970.38
2024-04-01T12:04:01.546Z,970.35
2024-04-01T12:05:01.499Z,970.38
2024-04-01T12:06:01.562Z,970.44
2024-04-01T12:07:01.598Z,970.47
2024-04-01T12:08:01.563Z,970.46
2024-04-01T12:09:01.480Z,970.51
2024-04-01T12:10:01.501Z,970.49
2024-04-01T12:11:01.419Z,970.50
2024-04-01T12:12:01.438Z,970.54
2024-04-01T12:13:01.376Z,970.53
2024-04-01T12:14:03.968Z,970.54
2024-04-01T12:15:01.361Z,970.57
2024-04-01T12:16:01.342Z,970.62
2024-04-01T12:17:01.331Z,970.57
2024-04-01T12:18:01.445Z,970.57
2024-04-01T12:19:01.313Z,970.59
2024-04-01T12:20:01.341Z,970.63
2024-04-01T12:21:01.293Z,970.63
2024-04-01T12:22:01.290Z,970.62
2024-04-01T12:23:01.321Z,970.62
2024-04-01T12:24:01.259Z,970.68
2024-04-01T12:25:04.471Z,970.69
2024-04-01T12:26:01.250Z,970.65
2024-04-01T12:27:02.213Z,970.72
2024-04-01T12:28:01.200Z,970.75